sensor_id;sensor_type;location;lat;lon;timestamp;temperature;humidity
19258;DHT22;9763;48.780;9.212;2022-12-24T00:00:23;13.60;92.10
19258;DHT22;9763;48.780;9.212;2022-12-24T00:03:48;13.60;92.20
19258;DHT22;9763;48.780;9.212;2022-12-24T00:07:12;13.60;92.30
19258;DHT22;9763;48.780;9.212;2022-12-24T00:10:35;13.60;92.90
19258;DHT22;9763;48.780;9.212;2022-12-24T00:13:59;13.60;92.50
19258;DHT22;9763;48.780;9.212;2022-12-24T00:17:23;13.60;92.70
19258;DHT22;9763;48.780;9.212;2022-12-24T00:20:48;13.60;92.80
19258;DHT22;9763;48.780;9.212;2022-12-24T00:24:12;13.60;92.70
19258;DHT22;9763;48.780;9.212;2022-12-24T00:27:36;13.60;92.70
19258;DHT22;9763;48.780;9.212;2022-12-24T00:30:59;13.60;92.80
19258;DHT22;9763;48.780;9.212;2022-12-24T00:34:29;13.70;92.70
19258;DHT22;9763;48.780;9.212;2022-12-24T00:37:54;13.60;92.60
19258;DHT22;9763;48.780;9.212;2022-12-24T00:41:17;13.60;92.50
19258;DHT22;9763;48.780;9.212;2022-12-24T00:44:50;13.60;92.80
19258;DHT22;9763;48.780;9.212;2022-12-24T00:48:13;13.60;93.00
19258;DHT22;9763;48.780;9.212;2022-12-24T00:51:37;13.70;93.10
19258;DHT22;9763;48.780;9.212;2022-12-24T00:55:03;13.60;93.40
19258;DHT22;9763;48.780;9.212;2022-12-24T00:58:27;13.60;93.10
19258;DHT22;9763;48.780;9.212;2022-12-24T01:01:50;13.70;93.10
19258;DHT22;9763;48.780;9.212;2022-12-24T01:05:14;13.70;92.80
19258;DHT22;9763;48.780;9.212;2022-12-24T01:08:41;13.70;93.10
19258;DHT22;9763;48.780;9.212;2022-12-24T01:12:06;13.70;93.20
19258;DHT22;9763;48.780;9.212;2022-12-24T01:15:30;13.70;93.20
19258;DHT22;9763;48.780;9.212;2022-12-24T01:18:53;13.70;93.50
19258;DHT22;9763;48.780;9.212;2022-12-24T01:22:17;13.70;93.50
19258;DHT22;9763;48.780;9.212;2022-12-24T01:25:40;13.80;93.60
19258;DHT22;9763;48.780;9.212;2022-12-24T01:29:05;13.80;93.60
19258;DHT22;9763;48.780;9.212;2022-12-24T01:32:29;13.80;93.30
19258;DHT22;9763;48.780;9.212;2022-12-24T01:35:52;13.90;93.60
19258;DHT22;9763;48.780;9.212;2022-12-24T01:39:16;14.10;93.70
19258;DHT22;9763;48.780;9.212;2022-12-24T01:42:42;13.90;93.50
19258;DHT22;9763;48.780;9.212;2022-12-24T01:46:30;13.90;93.30
19258;DHT22;9763;48.780;9.212;2022-12-24T01:49:57;13.90;92.90
19258;DHT22;9763;48.780;9.212;2022-12-24T01:53:24;13.90;91.90
19258;DHT22;9763;48.780;9.212;2022-12-24T01:56:50;13.80;91.40
19258;DHT22;9763;48.780;9.212;2022-12-24T02:00:16;13.70;91.10
19258;DHT22;9763;48.780;9.212;2022-12-24T02:03:42;13.50;91.30
19258;DHT22;9763;48.780;9.212;2022-12-24T02:07:06;13.40;91.20
19258;DHT22;9763;48.780;9.212;2022-12-24T02:10:29;13.30;91.20
19258;DHT22;9763;48.780;9.212;2022-12-24T02:13:55;13.20;91.20
19258;DHT22;9763;48.780;9.212;2022-12-24T02:17:27;13.10;91.40
19258;DHT22;9763;48.780;9.212;2022-12-24T02:21:28;13.00;91.40
19258;DHT22;9763;48.780;9.212;2022-12-24T02:25:14;12.90;91.60
19258;DHT22;9763;48.780;9.212;2022-12-24T02:29:17;12.90;91.90
19258;DHT22;9763;48.780;9.212;2022-12-24T02:33:17;12.80;91.90
19258;DHT22;9763;48.780;9.212;2022-12-24T02:36:52;12.70;91.60
19258;DHT22;9763;48.780;9.212;2022-12-24T02:40:23;12.70;91.80
19258;DHT22;9763;48.780;9.212;2022-12-24T02:43:51;12.60;92.30
19258;DHT22;9763;48.780;9.212;2022-12-24T02:47:17;12.60;92.20
19258;DHT22;9763;48.780;9.212;2022-12-24T02:50:57;12.60;92.40
19258;DHT22;9763;48.780;9.212;2022-12-24T02:54:24;12.60;92.30
19258;DHT22;9763;48.780;9.212;2022-12-24T02:58:09;12.60;92.30
19258;DHT22;9763;48.780;9.212;2022-12-24T03:01:50;12.60;91.90
19258;DHT22;9763;48.780;9.212;2022-12-24T03:05:27;12.60;91.80
19258;DHT22;9763;48.780;9.212;2022-12-24T03:09:07;12.60;91.70
19258;DHT22;9763;48.780;9.212;2022-12-24T03:12:42;12.50;91.50
19258;DHT22;9763;48.780;9.212;2022-12-24T03:16:12;12.50;91.60
19258;DHT22;9763;48.780;9.212;2022-12-24T03:19:39;12.50;91.80
19258;DHT22;9763;48.780;9.212;2022-12-24T03:23:03;12.50;92.00
19258;DHT22;9763;48.780;9.212;2022-12-24T03:26:30;12.50;92.00
19258;DHT22;9763;48.780;9.212;2022-12-24T03:29:55;12.50;92.10
19258;DHT22;9763;48.780;9.212;2022-12-24T03:33:19;12.50;92.30
19258;DHT22;9763;48.780;9.212;2022-12-24T03:36:43;12.50;92.30
19258;DHT22;9763;48.780;9.212;2022-12-24T03:40:09;12.50;92.30
19258;DHT22;9763;48.780;9.212;2022-12-24T03:43:35;12.50;92.30
19258;DHT22;9763;48.780;9.212;2022-12-24T03:46:58;12.40;92.30
19258;DHT22;9763;48.780;9.212;2022-12-24T03:50:21;12.50;92.50
19258;DHT22;9763;48.780;9.212;2022-12-24T03:53:45;12.40;92.50
19258;DHT22;9763;48.780;9.212;2022-12-24T03:57:08;12.50;92.60
19258;DHT22;9763;48.780;9.212;2022-12-24T04:00:33;12.50;92.60
19258;DHT22;9763;48.780;9.212;2022-12-24T04:03:57;12.50;92.70
19258;DHT22;9763;48.780;9.212;2022-12-24T04:07:20;12.50;92.90
19258;DHT22;9763;48.780;9.212;2022-12-24T04:10:43;12.50;93.00
19258;DHT22;9763;48.780;9.212;2022-12-24T04:14:07;12.50;93.00
19258;DHT22;9763;48.780;9.212;2022-12-24T04:17:32;12.50;92.90
19258;DHT22;9763;48.780;9.212;2022-12-24T04:20:55;12.50;92.80
19258;DHT22;9763;48.780;9.212;2022-12-24T04:24:20;12.50;92.90
19258;DHT22;9763;48.780;9.212;2022-12-24T04:27:43;12.50;92.70
19258;DHT22;9763;48.780;9.212;2022-12-24T04:31:08;12.50;92.80
19258;DHT22;9763;48.780;9.212;2022-12-24T04:34:35;12.50;92.60
19258;DHT22;9763;48.780;9.212;2022-12-24T04:37:58;12.50;92.50
19258;DHT22;9763;48.780;9.212;2022-12-24T04:41:23;12.50;92.60
19258;DHT22;9763;48.780;9.212;2022-12-24T04:44:46;12.50;92.70
19258;DHT22;9763;48.780;9.212;2022-12-24T04:48:10;12.50;92.80
19258;DHT22;9763;48.780;9.212;2022-12-24T04:51:34;12.50;92.60
19258;DHT22;9763;48.780;9.212;2022-12-24T04:54:58;12.50;92.40
19258;DHT22;9763;48.780;9.212;2022-12-24T04:58:22;12.50;92.10
19258;DHT22;9763;48.780;9.212;2022-12-24T05:01:46;12.40;92.00
19258;DHT22;9763;48.780;9.212;2022-12-24T05:05:09;12.70;92.20
19258;DHT22;9763;48.780;9.212;2022-12-24T05:08:34;12.40;92.20
19258;DHT22;9763;48.780;9.212;2022-12-24T05:11:58;12.40;92.10
19258;DHT22;9763;48.780;9.212;2022-12-24T05:15:22;12.40;92.10
19258;DHT22;9763;48.780;9.212;2022-12-24T05:18:46;12.40;92.00
19258;DHT22;9763;48.780;9.212;2022-12-24T05:22:09;12.30;91.80
19258;DHT22;9763;48.780;9.212;2022-12-24T05:25:51;12.30;91.70
19258;DHT22;9763;48.780;9.212;2022-12-24T05:29:32;12.20;91.60
19258;DHT22;9763;48.780;9.212;2022-12-24T05:32:56;12.20;91.50
19258;DHT22;9763;48.780;9.212;2022-12-24T05:36:20;12.20;91.40
19258;DHT22;9763;48.780;9.212;2022-12-24T05:39:44;12.10;91.40
19258;DHT22;9763;48.780;9.212;2022-12-24T05:43:08;12.10;91.50
19258;DHT22;9763;48.780;9.212;2022-12-24T05:46:32;12.10;91.50
19258;DHT22;9763;48.780;9.212;2022-12-24T05:49:56;12.10;91.50
19258;DHT22;9763;48.780;9.212;2022-12-24T05:53:20;12.10;91.40
19258;DHT22;9763;48.780;9.212;2022-12-24T05:56:43;12.00;91.40
19258;DHT22;9763;48.780;9.212;2022-12-24T06:00:09;12.00;91.20
19258;DHT22;9763;48.780;9.212;2022-12-24T06:03:33;12.00;91.20
19258;DHT22;9763;48.780;9.212;2022-12-24T06:06:57;11.90;91.10
19258;DHT22;9763;48.780;9.212;2022-12-24T06:10:21;11.90;91.10
19258;DHT22;9763;48.780;9.212;2022-12-24T06:13:45;11.90;91.10
19258;DHT22;9763;48.780;9.212;2022-12-24T06:17:10;11.90;91.10
19258;DHT22;9763;48.780;9.212;2022-12-24T06:20:34;11.90;91.00
19258;DHT22;9763;48.780;9.212;2022-12-24T06:23:57;11.80;90.90
19258;DHT22;9763;48.780;9.212;2022-12-24T06:27:22;11.80;91.00
19258;DHT22;9763;48.780;9.212;2022-12-24T06:30:46;11.80;90.90
19258;DHT22;9763;48.780;9.212;2022-12-24T06:34:12;11.80;90.80
19258;DHT22;9763;48.780;9.212;2022-12-24T06:37:36;11.70;90.70
19258;DHT22;9763;48.780;9.212;2022-12-24T06:40:59;11.80;90.70
19258;DHT22;9763;48.780;9.212;2022-12-24T06:44:27;11.70;90.60
19258;DHT22;9763;48.780;9.212;2022-12-24T06:47:51;11.70;90.60
19258;DHT22;9763;48.780;9.212;2022-12-24T06:51:16;11.60;90.90
19258;DHT22;9763;48.780;9.212;2022-12-24T06:54:41;11.60;90.70
19258;DHT22;9763;48.780;9.212;2022-12-24T06:58:04;11.60;90.80
19258;DHT22;9763;48.780;9.212;2022-12-24T07:01:28;11.60;91.10
19258;DHT22;9763;48.780;9.212;2022-12-24T07:04:52;11.60;91.40
19258;DHT22;9763;48.780;9.212;2022-12-24T07:08:17;11.60;91.60
19258;DHT22;9763;48.780;9.212;2022-12-24T07:11:40;11.60;91.80
19258;DHT22;9763;48.780;9.212;2022-12-24T07:15:04;11.60;92.20
19258;DHT22;9763;48.780;9.212;2022-12-24T07:18:29;11.60;92.40
19258;DHT22;9763;48.780;9.212;2022-12-24T07:21:53;11.70;92.50
19258;DHT22;9763;48.780;9.212;2022-12-24T07:25:18;11.70;92.50
19258;DHT22;9763;48.780;9.212;2022-12-24T07:28:42;11.70;92.50
19258;DHT22;9763;48.780;9.212;2022-12-24T07:32:06;11.70;92.50
19258;DHT22;9763;48.780;9.212;2022-12-24T07:35:30;11.70;92.50
19258;DHT22;9763;48.780;9.212;2022-12-24T07:38:54;11.70;92.40
19258;DHT22;9763;48.780;9.212;2022-12-24T07:42:19;11.70;92.60
19258;DHT22;9763;48.780;9.212;2022-12-24T07:45:43;11.80;93.00
19258;DHT22;9763;48.780;9.212;2022-12-24T07:49:07;11.80;93.30
19258;DHT22;9763;48.780;9.212;2022-12-24T07:52:31;11.80;93.30
19258;DHT22;9763;48.780;9.212;2022-12-24T07:55:55;11.90;93.40
19258;DHT22;9763;48.780;9.212;2022-12-24T07:59:21;11.90;93.40
19258;DHT22;9763;48.780;9.212;2022-12-24T08:02:44;12.00;93.50
19258;DHT22;9763;48.780;9.212;2022-12-24T08:06:09;12.00;93.60
19258;DHT22;9763;48.780;9.212;2022-12-24T08:09:33;12.00;93.60
19258;DHT22;9763;48.780;9.212;2022-12-24T08:12:58;12.10;93.60
19258;DHT22;9763;48.780;9.212;2022-12-24T08:16:23;12.10;93.80
19258;DHT22;9763;48.780;9.212;2022-12-24T08:19:47;12.10;93.90
19258;DHT22;9763;48.780;9.212;2022-12-24T08:23:10;12.20;94.20
19258;DHT22;9763;48.780;9.212;2022-12-24T08:26:34;12.20;94.20
19258;DHT22;9763;48.780;9.212;2022-12-24T08:29:57;12.20;93.90
19258;DHT22;9763;48.780;9.212;2022-12-24T08:33:22;12.30;94.10
19258;DHT22;9763;48.780;9.212;2022-12-24T08:36:46;12.30;93.80
19258;DHT22;9763;48.780;9.212;2022-12-24T08:40:10;12.40;94.10
19258;DHT22;9763;48.780;9.212;2022-12-24T08:43:34;12.40;94.10
19258;DHT22;9763;48.780;9.212;2022-12-24T08:46:59;12.40;94.30
19258;DHT22;9763;48.780;9.212;2022-12-24T08:50:23;12.50;94.20
19258;DHT22;9763;48.780;9.212;2022-12-24T08:53:47;12.50;93.80
19258;DHT22;9763;48.780;9.212;2022-12-24T08:57:11;12.60;93.90
19258;DHT22;9763;48.780;9.212;2022-12-24T09:00:36;12.60;93.60
19258;DHT22;9763;48.780;9.212;2022-12-24T09:04:00;12.80;93.70
19258;DHT22;9763;48.780;9.212;2022-12-24T09:07:25;12.90;93.60
19258;DHT22;9763;48.780;9.212;2022-12-24T09:10:49;12.60;93.10
19258;DHT22;9763;48.780;9.212;2022-12-24T09:14:12;12.60;93.20
19258;DHT22;9763;48.780;9.212;2022-12-24T09:17:36;12.60;93.50
19258;DHT22;9763;48.780;9.212;2022-12-24T09:21:00;12.60;93.90
19258;DHT22;9763;48.780;9.212;2022-12-24T09:24:26;12.70;94.30
19258;DHT22;9763;48.780;9.212;2022-12-24T09:27:49;12.70;94.20
19258;DHT22;9763;48.780;9.212;2022-12-24T09:31:13;12.80;94.40
19258;DHT22;9763;48.780;9.212;2022-12-24T09:34:38;12.80;94.60
19258;DHT22;9763;48.780;9.212;2022-12-24T09:38:01;12.90;94.70
19258;DHT22;9763;48.780;9.212;2022-12-24T09:41:35;12.90;94.60
19258;DHT22;9763;48.780;9.212;2022-12-24T09:45:10;13.00;94.20
19258;DHT22;9763;48.780;9.212;2022-12-24T09:48:43;13.00;94.00
19258;DHT22;9763;48.780;9.212;2022-12-24T09:52:12;13.10;93.60
19258;DHT22;9763;48.780;9.212;2022-12-24T09:55:47;13.10;93.00
19258;DHT22;9763;48.780;9.212;2022-12-24T09:59:18;13.00;92.70
19258;DHT22;9763;48.780;9.212;2022-12-24T10:02:44;13.00;92.70
19258;DHT22;9763;48.780;9.212;2022-12-24T10:06:13;13.50;93.20
19258;DHT22;9763;48.780;9.212;2022-12-24T10:09:45;13.00;93.10
19258;DHT22;9763;48.780;9.212;2022-12-24T10:13:28;13.00;94.00
19258;DHT22;9763;48.780;9.212;2022-12-24T10:17:16;13.10;94.60
19258;DHT22;9763;48.780;9.212;2022-12-24T10:20:59;13.20;94.60
19258;DHT22;9763;48.780;9.212;2022-12-24T10:24:31;13.30;95.10
19258;DHT22;9763;48.780;9.212;2022-12-24T10:28:12;13.40;96.10
19258;DHT22;9763;48.780;9.212;2022-12-24T10:31:42;13.50;96.20
19258;DHT22;9763;48.780;9.212;2022-12-24T10:35:20;13.60;96.50
19258;DHT22;9763;48.780;9.212;2022-12-24T10:38:47;13.60;95.50
19258;DHT22;9763;48.780;9.212;2022-12-24T10:42:12;13.70;96.00
19258;DHT22;9763;48.780;9.212;2022-12-24T10:45:41;13.80;95.40
19258;DHT22;9763;48.780;9.212;2022-12-24T10:49:13;13.80;95.50
19258;DHT22;9763;48.780;9.212;2022-12-24T10:52:41;13.90;95.30
19258;DHT22;9763;48.780;9.212;2022-12-24T10:56:09;14.00;95.90
19258;DHT22;9763;48.780;9.212;2022-12-24T10:59:41;14.00;96.70
19258;DHT22;9763;48.780;9.212;2022-12-24T11:03:21;14.10;96.20
19258;DHT22;9763;48.780;9.212;2022-12-24T11:06:55;14.20;95.50
19258;DHT22;9763;48.780;9.212;2022-12-24T11:10:23;14.20;95.10
19258;DHT22;9763;48.780;9.212;2022-12-24T11:13:53;14.30;95.20
19258;DHT22;9763;48.780;9.212;2022-12-24T11:17:20;14.30;94.60
19258;DHT22;9763;48.780;9.212;2022-12-24T11:20:50;14.40;94.40
19258;DHT22;9763;48.780;9.212;2022-12-24T11:24:23;14.30;93.60
19258;DHT22;9763;48.780;9.212;2022-12-24T11:27:51;14.30;93.20
19258;DHT22;9763;48.780;9.212;2022-12-24T11:31:18;14.40;93.40
19258;DHT22;9763;48.780;9.212;2022-12-24T11:34:43;14.30;93.20
19258;DHT22;9763;48.780;9.212;2022-12-24T11:38:11;14.30;93.60
19258;DHT22;9763;48.780;9.212;2022-12-24T11:41:40;14.20;93.20
19258;DHT22;9763;48.780;9.212;2022-12-24T11:45:07;14.20;93.80
19258;DHT22;9763;48.780;9.212;2022-12-24T11:48:41;14.20;93.80
19258;DHT22;9763;48.780;9.212;2022-12-24T11:52:19;14.20;94.50
19258;DHT22;9763;48.780;9.212;2022-12-24T11:55:47;14.30;94.10
19258;DHT22;9763;48.780;9.212;2022-12-24T11:59:16;14.30;95.00
19258;DHT22;9763;48.780;9.212;2022-12-24T12:02:50;14.40;95.20
19258;DHT22;9763;48.780;9.212;2022-12-24T12:06:25;14.60;95.20
19258;DHT22;9763;48.780;9.212;2022-12-24T12:09:56;14.50;94.70
19258;DHT22;9763;48.780;9.212;2022-12-24T12:13:28;14.50;94.70
19258;DHT22;9763;48.780;9.212;2022-12-24T12:16:58;14.80;94.90
19258;DHT22;9763;48.780;9.212;2022-12-24T12:20:30;14.50;94.40
19258;DHT22;9763;48.780;9.212;2022-12-24T12:23:59;14.50;94.60
19258;DHT22;9763;48.780;9.212;2022-12-24T12:27:30;14.60;94.40
19258;DHT22;9763;48.780;9.212;2022-12-24T12:31:02;14.60;94.60
19258;DHT22;9763;48.780;9.212;2022-12-24T12:34:41;14.60;94.20
19258;DHT22;9763;48.780;9.212;2022-12-24T12:38:16;14.60;94.30
19258;DHT22;9763;48.780;9.212;2022-12-24T12:41:49;14.60;93.70
19258;DHT22;9763;48.780;9.212;2022-12-24T12:45:43;14.60;93.80
19258;DHT22;9763;48.780;9.212;2022-12-24T12:49:27;14.50;92.90
19258;DHT22;9763;48.780;9.212;2022-12-24T12:53:22;14.50;93.70
19258;DHT22;9763;48.780;9.212;2022-12-24T12:57:02;14.50;94.10
19258;DHT22;9763;48.780;9.212;2022-12-24T13:00:34;14.50;94.00
19258;DHT22;9763;48.780;9.212;2022-12-24T13:08:55;14.50;93.70
19258;DHT22;9763;48.780;9.212;2022-12-24T13:12:45;14.50;94.20
19258;DHT22;9763;48.780;9.212;2022-12-24T13:16:54;14.60;94.90
19258;DHT22;9763;48.780;9.212;2022-12-24T13:20:40;14.60;94.70
19258;DHT22;9763;48.780;9.212;2022-12-24T13:24:16;14.80;95.80
19258;DHT22;9763;48.780;9.212;2022-12-24T13:27:41;14.80;95.60
19258;DHT22;9763;48.780;9.212;2022-12-24T13:31:35;14.90;95.80
19258;DHT22;9763;48.780;9.212;2022-12-24T13:35:01;14.90;93.30
19258;DHT22;9763;48.780;9.212;2022-12-24T13:38:39;15.20;94.50
19258;DHT22;9763;48.780;9.212;2022-12-24T13:42:06;15.00;93.60
19258;DHT22;9763;48.780;9.212;2022-12-24T13:45:44;15.00;93.80
19258;DHT22;9763;48.780;9.212;2022-12-24T13:49:15;15.00;92.80
19258;DHT22;9763;48.780;9.212;2022-12-24T13:52:50;15.00;93.00
19258;DHT22;9763;48.780;9.212;2022-12-24T13:56:23;14.90;92.20
19258;DHT22;9763;48.780;9.212;2022-12-24T13:59:56;14.90;92.10
19258;DHT22;9763;48.780;9.212;2022-12-24T14:03:34;14.80;91.90
19258;DHT22;9763;48.780;9.212;2022-12-24T14:07:05;14.80;92.10
19258;DHT22;9763;48.780;9.212;2022-12-24T14:10:33;14.70;92.30
19258;DHT22;9763;48.780;9.212;2022-12-24T14:14:25;14.60;91.90
19258;DHT22;9763;48.780;9.212;2022-12-24T14:17:52;14.60;91.20
19258;DHT22;9763;48.780;9.212;2022-12-24T14:21:19;14.50;92.00
19258;DHT22;9763;48.780;9.212;2022-12-24T14:24:52;14.50;92.10
19258;DHT22;9763;48.780;9.212;2022-12-24T14:28:22;14.40;92.00
19258;DHT22;9763;48.780;9.212;2022-12-24T14:31:51;14.40;92.10
19258;DHT22;9763;48.780;9.212;2022-12-24T14:35:19;14.40;92.20
19258;DHT22;9763;48.780;9.212;2022-12-24T14:38:45;14.40;91.80
19258;DHT22;9763;48.780;9.212;2022-12-24T14:42:24;14.50;91.90
19258;DHT22;9763;48.780;9.212;2022-12-24T14:46:01;14.30;91.30
19258;DHT22;9763;48.780;9.212;2022-12-24T14:49:39;14.30;91.70
19258;DHT22;9763;48.780;9.212;2022-12-24T14:53:24;14.20;91.60
19258;DHT22;9763;48.780;9.212;2022-12-24T14:57:20;14.20;91.50
19258;DHT22;9763;48.780;9.212;2022-12-24T15:00:45;14.20;90.80
19258;DHT22;9763;48.780;9.212;2022-12-24T15:04:15;14.10;91.30
19258;DHT22;9763;48.780;9.212;2022-12-24T15:07:43;14.20;90.90
19258;DHT22;9763;48.780;9.212;2022-12-24T15:11:16;14.00;90.60
19258;DHT22;9763;48.780;9.212;2022-12-24T15:14:42;13.90;90.30
19258;DHT22;9763;48.780;9.212;2022-12-24T15:18:13;13.80;90.40
19258;DHT22;9763;48.780;9.212;2022-12-24T15:21:41;13.80;90.30
19258;DHT22;9763;48.780;9.212;2022-12-24T15:25:17;13.60;90.40
19258;DHT22;9763;48.780;9.212;2022-12-24T15:28:44;13.60;90.20
19258;DHT22;9763;48.780;9.212;2022-12-24T15:32:12;13.50;90.30
19258;DHT22;9763;48.780;9.212;2022-12-24T15:35:50;13.50;90.40
19258;DHT22;9763;48.780;9.212;2022-12-24T15:39:16;13.40;90.60
19258;DHT22;9763;48.780;9.212;2022-12-24T15:42:41;13.30;90.90
19258;DHT22;9763;48.780;9.212;2022-12-24T15:46:07;13.30;90.60
19258;DHT22;9763;48.780;9.212;2022-12-24T15:49:32;13.20;90.60
19258;DHT22;9763;48.780;9.212;2022-12-24T15:53:00;13.20;90.60
19258;DHT22;9763;48.780;9.212;2022-12-24T15:56:43;13.20;90.50
19258;DHT22;9763;48.780;9.212;2022-12-24T16:00:20;13.10;90.50
19258;DHT22;9763;48.780;9.212;2022-12-24T16:03:56;13.10;90.20
19258;DHT22;9763;48.780;9.212;2022-12-24T16:07:25;13.00;90.30
19258;DHT22;9763;48.780;9.212;2022-12-24T16:11:14;12.90;90.60
19258;DHT22;9763;48.780;9.212;2022-12-24T16:14:45;12.90;90.70
19258;DHT22;9763;48.780;9.212;2022-12-24T16:18:15;12.90;90.90
19258;DHT22;9763;48.780;9.212;2022-12-24T16:21:43;12.90;91.10
19258;DHT22;9763;48.780;9.212;2022-12-24T16:25:21;12.90;91.20
19258;DHT22;9763;48.780;9.212;2022-12-24T16:28:46;12.90;91.00
19258;DHT22;9763;48.780;9.212;2022-12-24T16:32:29;12.90;91.30
19258;DHT22;9763;48.780;9.212;2022-12-24T16:35:55;12.90;91.00
19258;DHT22;9763;48.780;9.212;2022-12-24T16:39:22;12.90;91.40
19258;DHT22;9763;48.780;9.212;2022-12-24T16:42:49;12.90;91.40
19258;DHT22;9763;48.780;9.212;2022-12-24T16:46:30;12.90;91.60
19258;DHT22;9763;48.780;9.212;2022-12-24T16:49:55;12.90;91.70
19258;DHT22;9763;48.780;9.212;2022-12-24T16:53:20;12.90;91.80
19258;DHT22;9763;48.780;9.212;2022-12-24T16:56:46;12.90;91.90
19258;DHT22;9763;48.780;9.212;2022-12-24T17:00:14;13.00;92.00
19258;DHT22;9763;48.780;9.212;2022-12-24T17:03:41;13.00;91.90
19258;DHT22;9763;48.780;9.212;2022-12-24T17:07:05;13.00;92.10
19258;DHT22;9763;48.780;9.212;2022-12-24T17:10:29;13.00;92.10
19258;DHT22;9763;48.780;9.212;2022-12-24T17:13:54;13.00;92.00
19258;DHT22;9763;48.780;9.212;2022-12-24T17:17:20;13.00;91.80
19258;DHT22;9763;48.780;9.212;2022-12-24T17:20:56;13.00;91.80
19258;DHT22;9763;48.780;9.212;2022-12-24T17:24:21;13.00;91.70
19258;DHT22;9763;48.780;9.212;2022-12-24T17:27:46;13.00;92.00
19258;DHT22;9763;48.780;9.212;2022-12-24T17:31:12;13.00;92.00
19258;DHT22;9763;48.780;9.212;2022-12-24T17:34:38;12.90;91.90
19258;DHT22;9763;48.780;9.212;2022-12-24T17:38:02;12.90;92.10
19258;DHT22;9763;48.780;9.212;2022-12-24T17:41:25;12.90;92.30
19258;DHT22;9763;48.780;9.212;2022-12-24T17:44:49;13.00;92.60
19258;DHT22;9763;48.780;9.212;2022-12-24T17:48:14;13.00;92.70
19258;DHT22;9763;48.780;9.212;2022-12-24T17:51:38;13.00;92.60
19258;DHT22;9763;48.780;9.212;2022-12-24T17:55:08;13.00;93.00
19258;DHT22;9763;48.780;9.212;2022-12-24T17:58:32;13.10;93.10
19258;DHT22;9763;48.780;9.212;2022-12-24T18:01:56;13.10;93.10
19258;DHT22;9763;48.780;9.212;2022-12-24T18:05:21;13.10;93.10
19258;DHT22;9763;48.780;9.212;2022-12-24T18:08:46;13.10;92.90
19258;DHT22;9763;48.780;9.212;2022-12-24T18:12:10;13.20;93.20
19258;DHT22;9763;48.780;9.212;2022-12-24T18:15:35;13.20;93.20
19258;DHT22;9763;48.780;9.212;2022-12-24T18:19:02;13.20;93.00
19258;DHT22;9763;48.780;9.212;2022-12-24T18:22:27;13.30;92.90
19258;DHT22;9763;48.780;9.212;2022-12-24T18:25:51;13.30;92.80
19258;DHT22;9763;48.780;9.212;2022-12-24T18:29:15;13.30;93.00
19258;DHT22;9763;48.780;9.212;2022-12-24T18:32:39;13.30;92.90
19258;DHT22;9763;48.780;9.212;2022-12-24T18:36:03;13.30;92.80
19258;DHT22;9763;48.780;9.212;2022-12-24T18:39:28;13.30;92.80
19258;DHT22;9763;48.780;9.212;2022-12-24T18:42:51;13.30;92.70
19258;DHT22;9763;48.780;9.212;2022-12-24T18:46:16;13.30;93.00
19258;DHT22;9763;48.780;9.212;2022-12-24T18:49:41;13.30;92.70
19258;DHT22;9763;48.780;9.212;2022-12-24T18:53:06;13.30;91.30
19258;DHT22;9763;48.780;9.212;2022-12-24T18:56:31;13.30;92.80
19258;DHT22;9763;48.780;9.212;2022-12-24T18:59:55;13.30;92.60
19258;DHT22;9763;48.780;9.212;2022-12-24T19:03:18;13.30;92.80
19258;DHT22;9763;48.780;9.212;2022-12-24T19:06:42;13.30;92.80
19258;DHT22;9763;48.780;9.212;2022-12-24T19:10:14;13.30;92.70
19258;DHT22;9763;48.780;9.212;2022-12-24T19:13:39;13.30;92.60
19258;DHT22;9763;48.780;9.212;2022-12-24T19:17:02;13.30;92.60
19258;DHT22;9763;48.780;9.212;2022-12-24T19:20:25;13.30;92.80
19258;DHT22;9763;48.780;9.212;2022-12-24T19:23:49;13.30;92.80
19258;DHT22;9763;48.780;9.212;2022-12-24T19:27:12;13.30;92.70
19258;DHT22;9763;48.780;9.212;2022-12-24T19:30:39;13.30;92.70
19258;DHT22;9763;48.780;9.212;2022-12-24T19:34:04;13.30;92.40
19258;DHT22;9763;48.780;9.212;2022-12-24T19:37:28;13.30;92.60
19258;DHT22;9763;48.780;9.212;2022-12-24T19:40:52;13.30;92.40
19258;DHT22;9763;48.780;9.212;2022-12-24T19:44:15;13.30;92.50
19258;DHT22;9763;48.780;9.212;2022-12-24T19:47:40;13.30;92.50
19258;DHT22;9763;48.780;9.212;2022-12-24T19:51:06;13.30;92.30
19258;DHT22;9763;48.780;9.212;2022-12-24T19:54:30;13.30;92.30
19258;DHT22;9763;48.780;9.212;2022-12-24T19:57:53;13.20;92.40
19258;DHT22;9763;48.780;9.212;2022-12-24T20:01:18;13.20;92.10
19258;DHT22;9763;48.780;9.212;2022-12-24T20:04:46;13.20;92.20
19258;DHT22;9763;48.780;9.212;2022-12-24T20:08:09;13.20;92.30
19258;DHT22;9763;48.780;9.212;2022-12-24T20:11:34;13.20;90.60
19258;DHT22;9763;48.780;9.212;2022-12-24T20:14:58;13.20;92.10
19258;DHT22;9763;48.780;9.212;2022-12-24T20:18:21;13.10;92.20
19258;DHT22;9763;48.780;9.212;2022-12-24T20:21:46;13.10;92.30
19258;DHT22;9763;48.780;9.212;2022-12-24T20:25:10;13.20;92.40
19258;DHT22;9763;48.780;9.212;2022-12-24T20:28:35;13.30;92.60
19258;DHT22;9763;48.780;9.212;2022-12-24T20:31:59;13.10;92.40
19258;DHT22;9763;48.780;9.212;2022-12-24T20:35:23;13.10;92.60
19258;DHT22;9763;48.780;9.212;2022-12-24T20:38:49;14.30;93.00
19258;DHT22;9763;48.780;9.212;2022-12-24T20:42:12;13.10;92.20
19258;DHT22;9763;48.780;9.212;2022-12-24T20:45:36;13.10;92.30
19258;DHT22;9763;48.780;9.212;2022-12-24T20:49:00;13.10;92.00
19258;DHT22;9763;48.780;9.212;2022-12-24T20:52:24;13.10;91.80
19258;DHT22;9763;48.780;9.212;2022-12-24T20:55:50;13.00;91.50
19258;DHT22;9763;48.780;9.212;2022-12-24T20:59:15;13.00;91.40
19258;DHT22;9763;48.780;9.212;2022-12-24T21:02:38;13.00;91.40
19258;DHT22;9763;48.780;9.212;2022-12-24T21:06:02;12.90;91.20
19258;DHT22;9763;48.780;9.212;2022-12-24T21:09:26;12.80;91.20
19258;DHT22;9763;48.780;9.212;2022-12-24T21:12:51;13.00;91.20
19258;DHT22;9763;48.780;9.212;2022-12-24T21:16:18;12.70;91.00
19258;DHT22;9763;48.780;9.212;2022-12-24T21:19:41;12.70;91.20
19258;DHT22;9763;48.780;9.212;2022-12-24T21:23:05;12.60;91.30
19258;DHT22;9763;48.780;9.212;2022-12-24T21:26:30;12.50;91.40
19258;DHT22;9763;48.780;9.212;2022-12-24T21:29:55;12.50;91.50
19258;DHT22;9763;48.780;9.212;2022-12-24T21:33:19;12.50;91.50
19258;DHT22;9763;48.780;9.212;2022-12-24T21:36:43;12.40;91.50
19258;DHT22;9763;48.780;9.212;2022-12-24T21:40:09;12.40;91.70
19258;DHT22;9763;48.780;9.212;2022-12-24T21:43:34;12.40;91.80
19258;DHT22;9763;48.780;9.212;2022-12-24T21:47:00;12.40;92.00
19258;DHT22;9763;48.780;9.212;2022-12-24T21:50:23;12.30;91.80
19258;DHT22;9763;48.780;9.212;2022-12-24T21:54:16;12.90;92.30
19258;DHT22;9763;48.780;9.212;2022-12-24T22:04:42;12.50;91.40
19258;DHT22;9763;48.780;9.212;2022-12-24T22:08:05;12.50;91.30
19258;DHT22;9763;48.780;9.212;2022-12-24T22:42:30;12.20;90.80
19258;DHT22;9763;48.780;9.212;2022-12-24T22:49:19;12.20;90.70
19258;DHT22;9763;48.780;9.212;2022-12-24T22:56:11;12.10;90.70
19258;DHT22;9763;48.780;9.212;2022-12-24T23:06:27;12.10;90.80
19258;DHT22;9763;48.780;9.212;2022-12-24T23:13:16;12.10;90.60